Time;durP1;ratioP1;P1;durP2;ratioP2;P2;SDS_P1;SDS_P2;PMS_P1;PMS_P2;Temp;Humidity;BMP_temperature;BMP_pressure;BME280_temperature;BME280_humidity;BME280_pressure;Samples;Min_cycle;Max_cycle;Signal;HPM_P1;HPM_P2
2023/03/10 00:00:21;;;;;;;3.90;2.00;;;11.70;69.80;;;;;;5030715;28;20569;-73
2023/03/10 00:02:48;;;;;;;7.33;2.27;;;11.70;69.80;;;;;;5049416;28;20199;-73
2023/03/10 00:05:17;;;;;;;4.07;2.10;;;11.70;69.80;;;;;;5048290;28;20423;-74
2023/03/10 00:07:43;;;;;;;7.10;2.30;;;11.70;70.40;;;;;;5037529;28;20534;-73
2023/03/10 00:10:11;;;;;;;8.20;1.93;;;11.60;70.70;;;;;;5046175;28;20419;-73
2023/03/10 00:12:37;;;;;;;3.10;1.80;;;11.60;71.00;;;;;;5049099;28;20926;-73
2023/03/10 00:15:03;;;;;;;5.97;2.17;;;11.60;71.10;;;;;;5033487;28;20422;-72
2023/03/10 00:17:29;;;;;;;5.60;2.00;;;11.60;71.30;;;;;;5046290;28;20188;-74
2023/03/10 00:19:55;;;;;;;3.70;1.87;;;11.50;71.30;;;;;;5047913;28;20484;-73
2023/03/10 00:22:21;;;;;;;4.53;2.13;;;11.50;71.40;;;;;;5046274;28;20438;-73
2023/03/10 00:24:47;;;;;;;3.27;1.70;;;11.50;71.30;;;;;;5054543;28;20206;-75
2023/03/10 00:27:12;;;;;;;3.80;2.10;;;11.50;71.30;;;;;;5050283;28;20218;-74
2023/03/10 00:29:38;;;;;;;5.73;1.80;;;11.50;70.80;;;;;;5056394;28;20885;-73
2023/03/10 00:32:04;;;;;;;4.73;1.80;;;11.50;70.80;;;;;;5052468;28;20238;-73
2023/03/10 00:34:30;;;;;;;2.77;1.67;;;11.50;70.50;;;;;;5046333;28;20611;-73
2023/03/10 00:36:56;;;;;;;3.53;1.90;;;11.50;70.40;;;;;;5050797;28;20450;-73
2023/03/10 00:39:21;;;;;;;4.13;2.10;;;11.50;70.20;;;;;;5030420;28;20490;-73
2023/03/10 00:41:47;;;;;;;4.43;1.70;;;11.50;70.20;;;;;;5050231;28;20683;-72
2023/03/10 00:44:13;;;;;;;3.00;1.60;;;11.50;70.40;;;;;;5048803;28;20261;-73
2023/03/10 00:46:39;;;;;;;2.80;1.60;;;11.50;70.70;;;;;;5033418;28;20462;-74
2023/03/10 00:49:07;;;;;;;2.37;1.50;;;11.50;71.00;;;;;;5044563;28;20269;-72
2023/03/10 00:51:33;;;;;;;3.30;1.70;;;11.50;71.30;;;;;;5051881;28;20426;-76
2023/03/10 00:54:00;;;;;;;3.87;1.67;;;11.50;71.30;;;;;;5057912;28;20794;-74
2023/03/10 00:56:28;;;;;;;2.80;1.50;;;11.50;71.70;;;;;;5055371;28;20431;-75
2023/03/10 00:58:58;;;;;;;3.40;1.93;;;11.50;71.80;;;;;;5055973;28;20470;-74
2023/03/10 01:01:31;;;;;;;4.33;1.53;;;11.40;72.00;;;;;;5055504;28;20484;-76
2023/03/10 01:04:00;;;;;;;4.23;1.47;;;11.40;72.10;;;;;;5050227;28;20504;-76
2023/03/10 01:06:26;;;;;;;6.40;1.77;;;11.40;72.30;;;;;;5048643;28;20474;-75
2023/03/10 01:08:52;;;;;;;3.50;1.63;;;11.40;72.30;;;;;;5040983;28;20876;-75
2023/03/10 01:11:21;;;;;;;2.53;1.63;;;11.40;72.10;;;;;;5049893;28;20931;-75
2023/03/10 01:13:47;;;;;;;5.07;1.80;;;11.40;72.30;;;;;;5031284;28;20496;-76
2023/03/10 01:16:15;;;;;;;3.97;1.90;;;11.40;72.40;;;;;;5046132;28;20902;-74
2023/03/10 01:18:42;;;;;;;3.50;1.60;;;11.40;72.40;;;;;;5038528;28;20835;-74
2023/03/10 01:21:35;;;;;;;1.93;1.37;;;11.40;72.40;;;;;;5027094;28;20423;-75
2023/03/10 01:24:07;;;;;;;6.50;1.60;;;11.40;72.40;;;;;;5044401;28;20441;-74
2023/03/10 01:26:32;;;;;;;3.90;1.80;;;11.40;72.60;;;;;;5048879;28;20816;-73
2023/03/10 01:28:58;;;;;;;3.53;1.90;;;11.30;72.70;;;;;;5047495;28;20459;-75
2023/03/10 01:31:24;;;;;;;4.10;1.80;;;11.30;72.90;;;;;;5046678;28;20184;-76
2023/03/10 01:33:49;;;;;;;3.00;2.10;;;11.20;72.90;;;;;;5047568;28;20272;-75
2023/03/10 01:36:18;;;;;;;3.13;1.53;;;11.30;72.90;;;;;;5046935;28;20211;-75
2023/03/10 01:38:44;;;;;;;3.93;1.93;;;11.20;72.70;;;;;;5048330;28;20291;-72
2023/03/10 01:41:10;;;;;;;5.00;1.40;;;11.20;72.60;;;;;;5047765;28;20511;-74
2023/03/10 01:43:40;;;;;;;7.53;2.03;;;11.20;72.60;;;;;;5032591;28;20526;-74
2023/03/10 01:46:26;;;;;;;3.60;1.80;;;11.10;72.60;;;;;;5046175;28;20513;-74
2023/03/10 01:48:53;;;;;;;2.70;1.57;;;11.10;72.30;;;;;;5041585;28;20466;-73
2023/03/10 01:51:19;;;;;;;2.60;1.70;;;11.20;72.10;;;;;;5046127;28;20940;-74
2023/03/10 01:53:45;;;;;;;4.63;1.57;;;11.10;71.80;;;;;;5047990;28;20418;-74
2023/03/10 01:56:12;;;;;;;2.40;1.50;;;11.20;71.70;;;;;;5043101;28;20431;-75
2023/03/10 01:58:42;;;;;;;4.20;1.57;;;11.20;71.70;;;;;;5026171;28;20528;-73
2023/03/10 02:01:10;;;;;;;4.87;1.90;;;11.20;71.80;;;;;;5046519;28;20801;-73
2023/03/10 02:04:03;;;;;;;2.47;1.53;;;11.20;71.80;;;;;;5049137;28;20423;-75
2023/03/10 02:06:31;;;;;;;3.50;1.70;;;11.20;72.10;;;;;;5049225;28;20459;-75
2023/03/10 02:08:58;;;;;;;4.13;2.00;;;11.20;72.10;;;;;;5031829;28;20952;-74
2023/03/10 02:11:24;;;;;;;2.73;1.30;;;11.20;72.30;;;;;;5045857;28;20956;-73
2023/03/10 02:13:50;;;;;;;2.57;1.50;;;11.20;72.40;;;;;;5049833;28;20419;-73
2023/03/10 02:16:17;;;;;;;3.37;1.40;;;11.20;72.60;;;;;;5049393;28;21107;-73
2023/03/10 02:18:45;;;;;;;1.60;1.40;;;11.10;72.90;;;;;;5044452;28;20817;-72
2023/03/10 02:21:40;;;;;;;2.63;1.40;;;11.10;73.20;;;;;;5048364;28;20497;-72
2023/03/10 02:24:44;;;;;;;6.73;1.60;;;11.10;73.50;;;;;;5029310;28;20423;-74
2023/03/10 02:27:23;;;;;;;10.50;3.40;;;11.10;73.50;;;;;;5045118;28;20463;-72
2023/03/10 02:30:10;;;;;;;4.60;1.63;;;11.10;73.70;;;;;;5041535;28;20542;-73
2023/03/10 02:32:46;;;;;;;3.10;1.30;;;11.10;74.30;;;;;;5040981;28;21001;-73
2023/03/10 02:35:11;;;;;;;3.87;1.20;;;11.10;74.80;;;;;;5047548;28;20937;-74
2023/03/10 02:37:37;;;;;;;2.63;1.20;;;11.10;75.20;;;;;;5046626;28;20455;-72
2023/03/10 02:40:24;;;;;;;2.27;1.10;;;11.00;75.50;;;;;;5044668;28;20677;-73
2023/03/10 02:42:50;;;;;;;3.10;1.20;;;11.00;75.90;;;;;;5047696;28;20188;-72
2023/03/10 02:45:17;;;;;;;1.73;1.17;;;11.00;76.40;;;;;;5030932;28;20438;-72
2023/03/10 02:47:42;;;;;;;1.73;1.10;;;11.00;76.50;;;;;;5023843;28;20475;-73
2023/03/10 02:50:12;;;;;;;4.90;1.20;;;11.00;76.80;;;;;;5046615;28;20433;-73
2023/03/10 02:52:43;;;;;;;2.60;1.20;;;11.00;77.00;;;;;;5049612;28;20261;-74
2023/03/10 02:55:15;;;;;;;2.20;1.30;;;10.90;77.30;;;;;;5053216;28;20475;-72
2023/03/10 02:57:40;;;;;;;3.60;1.33;;;10.80;77.70;;;;;;5054098;28;20993;-72
2023/03/10 03:00:07;;;;;;;2.40;1.27;;;10.80;78.40;;;;;;5057204;28;21022;-74
2023/03/10 03:02:33;;;;;;;1.97;1.30;;;10.70;79.00;;;;;;5057031;28;20271;-74
2023/03/10 03:04:59;;;;;;;6.87;1.33;;;10.60;79.60;;;;;;5060175;28;20941;-73
2023/03/10 03:07:26;;;;;;;3.23;1.07;;;10.60;80.20;;;;;;5059819;28;20237;-74
2023/03/10 03:09:51;;;;;;;2.90;1.20;;;10.50;80.50;;;;;;5049651;28;20189;-73
2023/03/10 03:12:17;;;;;;;2.60;1.10;;;10.40;80.80;;;;;;5030775;28;20484;-73
2023/03/10 03:14:42;;;;;;;1.43;0.90;;;10.40;80.90;;;;;;5053428;28;20192;-73
2023/03/10 03:17:08;;;;;;;2.10;1.03;;;10.40;81.20;;;;;;5048244;28;20196;-73
2023/03/10 03:19:34;;;;;;;3.10;1.30;;;10.40;81.40;;;;;;5046443;28;20212;-73
2023/03/10 03:22:00;;;;;;;2.40;1.40;;;10.40;81.70;;;;;;5048115;28;20185;-71
2023/03/10 03:24:25;;;;;;;2.60;1.30;;;10.40;81.90;;;;;;5052273;28;20279;-72
2023/03/10 03:26:51;;;;;;;2.90;1.30;;;10.40;82.20;;;;;;5046676;28;20533;-73
2023/03/10 03:29:16;;;;;;;2.17;1.33;;;10.30;82.40;;;;;;5050701;28;20236;-71
2023/03/10 03:31:42;;;;;;;2.27;1.00;;;10.30;82.50;;;;;;5053431;28;20184;-73
2023/03/10 03:34:08;;;;;;;2.77;1.13;;;10.30;82.70;;;;;;5053626;28;20185;-73
2023/03/10 03:36:34;;;;;;;5.83;1.33;;;10.30;83.00;;;;;;5053854;28;20547;-76
2023/03/10 03:39:01;;;;;;;2.60;0.87;;;10.30;83.10;;;;;;5045888;28;21054;-74
2023/03/10 03:41:26;;;;;;;2.73;1.30;;;10.30;83.40;;;;;;5052619;28;20473;-75
2023/03/10 03:43:52;;;;;;;2.00;0.90;;;10.30;83.40;;;;;;5050489;28;20464;-73
2023/03/10 03:46:17;;;;;;;2.10;0.80;;;10.20;83.60;;;;;;5039656;28;20200;-72
2023/03/10 03:48:43;;;;;;;2.73;0.90;;;10.20;83.60;;;;;;5056914;28;20209;-73
2023/03/10 03:51:08;;;;;;;1.00;0.80;;;10.20;83.70;;;;;;5055260;28;20617;-73
2023/03/10 03:53:34;;;;;;;1.50;0.80;;;10.10;83.70;;;;;;5051338;28;20184;-74
2023/03/10 03:56:00;;;;;;;1.77;0.90;;;10.10;83.70;;;;;;5031223;28;20216;-73
2023/03/10 03:58:25;;;;;;;1.43;0.77;;;10.20;83.70;;;;;;5045121;28;20969;-73
2023/03/10 04:00:51;;;;;;;3.37;0.90;;;10.20;83.60;;;;;;5047536;28;20192;-74
2023/03/10 04:03:17;;;;;;;0.90;0.70;;;10.30;83.30;;;;;;5050897;28;20224;-74
2023/03/10 04:05:44;;;;;;;1.37;0.80;;;10.30;83.10;;;;;;5047612;28;20185;-75
2023/03/10 04:08:11;;;;;;;1.40;0.80;;;10.20;83.30;;;;;;5041427;28;20458;-74
2023/03/10 04:10:37;;;;;;;1.00;0.90;;;10.30;83.30;;;;;;5044498;28;20427;-74
2023/03/10 04:13:02;;;;;;;0.90;0.70;;;10.30;83.30;;;;;;5051440;28;20429;-74
2023/03/10 04:15:28;;;;;;;1.50;0.60;;;10.20;83.40;;;;;;5051611;28;20184;-73
2023/03/10 04:17:56;;;;;;;1.37;0.90;;;10.30;83.60;;;;;;5022122;28;20209;-74
2023/03/10 04:20:23;;;;;;;1.47;0.80;;;10.30;83.40;;;;;;5049537;28;20192;-75
2023/03/10 04:22:49;;;;;;;3.77;1.00;;;10.30;83.60;;;;;;5050495;28;20456;-73
2023/03/10 04:25:15;;;;;;;1.40;0.80;;;10.30;83.60;;;;;;5051315;28;20511;-73
2023/03/10 04:27:40;;;;;;;1.20;0.70;;;10.20;83.70;;;;;;5048726;28;20553;-75
2023/03/10 04:30:07;;;;;;;1.30;0.70;;;10.30;83.70;;;;;;5051085;28;20193;-73
2023/03/10 04:32:33;;;;;;;1.90;0.87;;;10.20;83.70;;;;;;5030728;28;20200;-75
2023/03/10 04:34:59;;;;;;;3.00;0.80;;;10.30;83.60;;;;;;5052209;28;20423;-76
2023/03/10 04:37:26;;;;;;;1.73;0.90;;;10.20;83.60;;;;;;5049536;28;20223;-73
2023/03/10 04:39:51;;;;;;;2.37;0.90;;;10.20;83.40;;;;;;5046697;28;20471;-73
2023/03/10 04:42:17;;;;;;;2.10;0.90;;;10.20;83.60;;;;;;5047972;28;20419;-74
2023/03/10 04:44:43;;;;;;;3.70;0.80;;;10.20;83.60;;;;;;5050401;28;20192;-75
2023/03/10 04:47:08;;;;;;;1.10;0.80;;;10.20;83.70;;;;;;5034502;28;20710;-73
2023/03/10 04:49:36;;;;;;;2.80;0.90;;;10.30;83.40;;;;;;5050917;28;20257;-74
2023/03/10 04:52:01;;;;;;;1.40;0.83;;;10.30;83.30;;;;;;5049466;28;20188;-72
2023/03/10 04:54:27;;;;;;;1.53;0.90;;;10.30;83.10;;;;;;5036057;28;20426;-72
2023/03/10 04:56:52;;;;;;;1.10;0.90;;;10.30;83.00;;;;;;5050391;28;20242;-73
2023/03/10 04:59:20;;;;;;;1.30;0.90;;;10.40;83.00;;;;;;5046214;28;20862;-74
2023/03/10 05:01:46;;;;;;;2.03;1.00;;;10.40;83.40;;;;;;5049911;28;20276;-73
2023/03/10 05:04:12;;;;;;;3.33;1.00;;;10.40;83.40;;;;;;5050579;28;20419;-74
2023/03/10 05:06:37;;;;;;;1.63;0.90;;;10.40;83.40;;;;;;5052007;28;20492;-75
2023/03/10 05:09:03;;;;;;;1.50;0.80;;;10.30;83.40;;;;;;5038036;28;20209;-73
2023/03/10 05:11:30;;;;;;;1.33;0.90;;;10.30;83.30;;;;;;5052665;28;20173;-74
2023/03/10 05:13:56;;;;;;;1.53;1.10;;;10.20;83.40;;;;;;5053979;28;20415;-73
2023/03/10 05:16:22;;;;;;;1.30;0.70;;;10.20;83.60;;;;;;5035352;28;20524;-74
2023/03/10 05:18:48;;;;;;;3.50;1.27;;;10.10;83.60;;;;;;5049200;28;20683;-73
2023/03/10 05:21:14;;;;;;;1.40;0.90;;;10.10;83.70;;;;;;5050544;28;20434;-75
2023/03/10 05:23:40;;;;;;;11.67;4.97;;;10.10;83.80;;;;;;5049104;28;20375;-72
2023/03/10 05:26:07;;;;;;;74.37;25.60;;;10.00;83.80;;;;;;5046863;28;20553;-74
2023/03/10 05:28:33;;;;;;;30.00;11.70;;;10.00;83.80;;;;;;5046897;28;20201;-76
2023/03/10 05:30:59;;;;;;;9.30;2.70;;;10.00;83.70;;;;;;5049223;28;20419;-73
2023/03/10 05:33:25;;;;;;;2.67;1.70;;;10.00;84.00;;;;;;5047534;28;20430;-75
2023/03/10 05:35:50;;;;;;;1.47;1.13;;;10.00;83.70;;;;;;5051575;28;20184;-75
2023/03/10 05:38:16;;;;;;;3.20;1.10;;;9.90;83.80;;;;;;5031720;28;20268;-74
2023/03/10 05:40:43;;;;;;;4.20;1.10;;;10.00;83.70;;;;;;5047854;28;20197;-75
2023/03/10 05:43:09;;;;;;;2.07;1.20;;;9.90;83.80;;;;;;5047458;28;20422;-74
2023/03/10 05:45:35;;;;;;;1.70;1.10;;;9.90;83.80;;;;;;5047204;28;20427;-74
2023/03/10 05:48:01;;;;;;;1.63;1.03;;;9.90;83.70;;;;;;5045707;28;21031;-75
2023/03/10 05:50:26;;;;;;;2.07;0.93;;;10.00;83.40;;;;;;5046412;28;20189;-74
2023/03/10 05:52:52;;;;;;;7.23;1.20;;;10.00;83.30;;;;;;5045781;28;20647;-75
2023/03/10 05:55:19;;;;;;;1.97;1.20;;;10.10;83.00;;;;;;5045936;28;20185;-73
2023/03/10 05:57:45;;;;;;;2.00;1.33;;;10.10;82.80;;;;;;5046304;28;20804;-74
2023/03/10 06:00:12;;;;;;;4.33;1.73;;;10.20;82.50;;;;;;5044036;28;20467;-74
2023/03/10 06:02:38;;;;;;;2.20;1.13;;;10.30;82.20;;;;;;5049403;28;20434;-75
2023/03/10 06:05:06;;;;;;;2.50;1.10;;;10.30;82.20;;;;;;5049819;28;20414;-73
2023/03/10 06:07:33;;;;;;;2.80;1.20;;;10.30;82.10;;;;;;5042635;28;20490;-74
2023/03/10 06:09:59;;;;;;;1.80;1.30;;;10.30;81.90;;;;;;5030648;28;20479;-75
2023/03/10 06:12:25;;;;;;;1.50;0.90;;;10.30;82.50;;;;;;5048965;28;20426;-75
2023/03/10 06:14:50;;;;;;;2.87;1.20;;;10.30;83.30;;;;;;5048333;28;20433;-74
2023/03/10 06:17:16;;;;;;;3.70;1.30;;;10.30;83.80;;;;;;5048424;28;20196;-74
2023/03/10 06:19:42;;;;;;;2.97;1.07;;;10.20;84.60;;;;;;5042053;28;20315;-74
2023/03/10 06:22:08;;;;;;;1.90;0.90;;;10.10;85.50;;;;;;5049840;28;20250;-73
2023/03/10 06:24:33;;;;;;;5.00;1.20;;;10.00;86.80;;;;;;5029881;28;20208;-74
2023/03/10 06:26:59;;;;;;;2.00;1.10;;;9.80;87.80;;;;;;5049604;28;20836;-75
2023/03/10 06:29:24;;;;;;;2.00;1.00;;;9.60;88.40;;;;;;5047439;28;21699;-75
2023/03/10 06:31:50;;;;;;;3.63;1.47;;;9.50;88.60;;;;;;5053232;28;20191;-73
2023/03/10 06:34:16;;;;;;;1.80;1.03;;;9.30;88.40;;;;;;5046427;28;20216;-73
2023/03/10 06:36:42;;;;;;;2.37;1.00;;;9.10;88.90;;;;;;5049226;28;20562;-75
2023/03/10 06:39:08;;;;;;;2.10;0.77;;;8.90;88.70;;;;;;5048471;28;20474;-74
2023/03/10 06:41:36;;;;;;;2.70;0.70;;;8.90;89.20;;;;;;5048467;28;20571;-74
2023/03/10 06:44:02;;;;;;;0.80;0.60;;;8.90;88.40;;;;;;5057616;28;20435;-73
2023/03/10 06:46:29;;;;;;;1.77;0.70;;;8.80;88.40;;;;;;5054785;28;20510;-74
2023/03/10 06:48:55;;;;;;;1.33;0.80;;;8.90;88.10;;;;;;5049665;28;20492;-75
2023/03/10 06:51:21;;;;;;;2.83;0.90;;;8.90;88.30;;;;;;5048311;28;20636;-74
2023/03/10 06:53:50;;;;;;;1.13;0.80;;;8.90;88.60;;;;;;5063383;28;20284;-74
2023/03/10 06:56:19;;;;;;;0.80;0.60;;;8.90;88.90;;;;;;5068636;28;20492;-73
2023/03/10 06:58:45;;;;;;;0.97;0.73;;;8.90;89.20;;;;;;5065968;28;20459;-72
2023/03/10 07:01:29;;;;;;;1.53;0.90;;;9.00;89.20;;;;;;5068492;28;20442;-72
2023/03/10 07:03:56;;;;;;;1.00;0.80;;;9.10;89.30;;;;;;5065799;28;20430;-74
2023/03/10 07:06:22;;;;;;;3.43;1.30;;;9.20;89.60;;;;;;5063939;28;20466;-73
2023/03/10 07:08:48;;;;;;;1.50;1.10;;;9.20;89.70;;;;;;5036824;28;20486;-72
2023/03/10 07:11:14;;;;;;;1.23;0.80;;;9.30;89.70;;;;;;5053675;28;20463;-72
2023/03/10 07:13:40;;;;;;;2.37;0.93;;;9.40;89.60;;;;;;5053402;28;20510;-74
2023/03/10 07:16:07;;;;;;;2.83;1.00;;;9.60;89.30;;;;;;5055302;28;20453;-74
2023/03/10 07:18:32;;;;;;;5.47;0.97;;;9.60;88.70;;;;;;5050829;28;20216;-75
2023/03/10 07:20:58;;;;;;;2.27;1.00;;;9.60;88.60;;;;;;5036634;28;20518;-75
2023/03/10 07:23:24;;;;;;;2.30;1.10;;;9.70;88.60;;;;;;5045553;28;20235;-75
2023/03/10 07:25:55;;;;;;;3.10;1.20;;;9.70;88.60;;;;;;5034724;28;20262;-75
2023/03/10 07:28:22;;;;;;;1.60;0.90;;;9.70;88.70;;;;;;5042552;28;20471;-74
2023/03/10 07:30:48;;;;;;;1.40;1.00;;;9.80;88.70;;;;;;5033489;28;20514;-74
2023/03/10 07:33:14;;;;;;;5.07;1.40;;;9.80;88.60;;;;;;5052347;28;20498;-74
2023/03/10 07:35:40;;;;;;;2.20;1.10;;;9.90;88.60;;;;;;5035040;28;20222;-74
2023/03/10 07:38:05;;;;;;;1.93;0.90;;;10.00;88.40;;;;;;5048115;28;20471;-74
2023/03/10 07:40:31;;;;;;;4.07;1.40;;;10.00;88.10;;;;;;5030031;28;20204;-74
2023/03/10 07:42:57;;;;;;;2.10;1.20;;;10.00;87.80;;;;;;5044868;28;20753;-74
2023/03/10 07:45:24;;;;;;;3.33;1.37;;;10.10;87.70;;;;;;5054547;28;20518;-76
2023/03/10 07:47:50;;;;;;;2.63;1.23;;;10.20;87.60;;;;;;5046501;28;20231;-76
2023/03/10 07:50:17;;;;;;;2.80;1.20;;;10.30;87.30;;;;;;5055374;28;21074;-76
2023/03/10 07:52:43;;;;;;;4.20;1.40;;;10.30;87.00;;;;;;5037035;28;20493;-76
2023/03/10 07:55:09;;;;;;;1.27;1.17;;;10.30;87.00;;;;;;5052081;28;20423;-77
2023/03/10 07:57:34;;;;;;;2.20;0.93;;;10.20;87.30;;;;;;5053269;28;20212;-77
2023/03/10 08:00:00;;;;;;;2.87;1.10;;;10.20;87.30;;;;;;5054623;28;20517;-77
2023/03/10 08:02:26;;;;;;;1.60;0.73;;;10.20;87.60;;;;;;5057707;28;20655;-75
2023/03/10 08:04:52;;;;;;;2.53;1.20;;;10.10;88.10;;;;;;5057158;28;20418;-75
2023/03/10 08:07:17;;;;;;;3.27;1.40;;;9.90;88.00;;;;;;5053471;28;20212;-73
2023/03/10 08:09:49;;;;;;;2.00;1.10;;;9.80;89.50;;;;;;5048849;28;20236;-75
2023/03/10 08:12:15;;;;;;;3.83;1.53;;;9.60;90.20;;;;;;5050843;28;20620;-75
2023/03/10 08:14:41;;;;;;;7.53;1.43;;;9.50;90.60;;;;;;5050063;28;20419;-74
2023/03/10 08:17:07;;;;;;;2.77;1.30;;;9.40;91.20;;;;;;5048374;28;20937;-75
2023/03/10 08:19:32;;;;;;;2.50;1.20;;;9.20;91.40;;;;;;5046131;28;20204;-74
2023/03/10 08:21:58;;;;;;;7.17;1.63;;;9.20;91.70;;;;;;5045571;28;20202;-74
2023/03/10 08:24:24;;;;;;;2.60;0.90;;;9.10;91.50;;;;;;5046142;28;20196;-75
2023/03/10 08:26:50;;;;;;;2.03;1.30;;;9.00;91.50;;;;;;5041625;28;20209;-76
2023/03/10 08:29:16;;;;;;;5.23;1.03;;;9.00;91.80;;;;;;5045989;28;20757;-73
2023/03/10 08:31:41;;;;;;;3.30;1.00;;;8.90;91.50;;;;;;5051130;28;20192;-74
2023/03/10 08:34:07;;;;;;;1.53;1.07;;;8.90;91.60;;;;;;5047657;28;20272;-74
2023/03/10 08:36:33;;;;;;;2.90;1.30;;;9.00;91.60;;;;;;5049505;28;20196;-73
2023/03/10 08:39:04;;;;;;;1.70;1.03;;;9.00;91.60;;;;;;5044967;28;20220;-73
2023/03/10 08:41:41;;;;;;;3.37;1.00;;;9.00;91.30;;;;;;5031423;28;20689;-73
2023/03/10 08:44:07;;;;;;;2.47;1.17;;;9.00;91.30;;;;;;5046059;28;20455;-73
2023/03/10 08:46:33;;;;;;;1.23;1.00;;;9.00;90.40;;;;;;5048781;28;20498;-72
2023/03/10 08:49:00;;;;;;;2.20;1.20;;;9.10;90.40;;;;;;5045359;28;20278;-73
2023/03/10 08:51:27;;;;;;;2.70;1.10;;;9.30;90.40;;;;;;5051360;28;20466;-74
2023/03/10 08:53:53;;;;;;;3.33;1.20;;;9.70;90.50;;;;;;5051664;28;20429;-73
2023/03/10 08:56:21;;;;;;;2.00;1.07;;;10.00;90.30;;;;;;5051862;28;20514;-74
2023/03/10 08:58:47;;;;;;;1.40;1.00;;;10.00;88.90;;;;;;5032774;28;20500;-72
2023/03/10 09:01:14;;;;;;;1.43;0.80;;;9.90;87.80;;;;;;5051582;28;20506;-73
2023/03/10 09:03:43;;;;;;;1.57;0.90;;;9.70;87.80;;;;;;5048306;28;20455;-73
2023/03/10 09:06:08;;;;;;;1.20;0.83;;;9.50;88.70;;;;;;5048926;28;20422;-73
2023/03/10 09:08:34;;;;;;;3.10;1.43;;;9.50;88.90;;;;;;5042478;28;20878;-73
2023/03/10 09:11:00;;;;;;;3.67;1.23;;;9.60;89.30;;;;;;5050494;28;20192;-73
2023/03/10 09:13:26;;;;;;;1.50;1.00;;;9.60;89.50;;;;;;5046583;28;20423;-73
2023/03/10 09:15:52;;;;;;;1.30;0.97;;;9.70;88.70;;;;;;5048266;28;20980;-73
2023/03/10 09:18:18;;;;;;;1.93;1.03;;;9.90;88.40;;;;;;5043521;28;20215;-73
2023/03/10 09:20:45;;;;;;;3.37;1.20;;;10.00;87.40;;;;;;5056962;28;20184;-72
2023/03/10 09:23:12;;;;;;;1.20;0.80;;;10.10;86.90;;;;;;5052663;28;20419;-72
2023/03/10 09:25:39;;;;;;;1.70;1.07;;;10.30;86.50;;;;;;5056835;28;20461;-73
2023/03/10 09:28:06;;;;;;;3.07;1.10;;;10.50;86.20;;;;;;5057596;28;20573;-72
2023/03/10 09:30:36;;;;;;;1.87;1.17;;;10.60;85.50;;;;;;5057266;28;20419;-72
2023/03/10 09:33:05;;;;;;;6.00;1.70;;;10.70;84.60;;;;;;5050613;28;20419;-73
2023/03/10 09:35:31;;;;;;;8.70;1.70;;;10.80;83.80;;;;;;5047595;28;20951;-72
2023/03/10 09:37:57;;;;;;;2.53;1.30;;;10.90;81.90;;;;;;5043683;28;20490;-73
2023/03/10 09:40:23;;;;;;;2.53;1.20;;;11.00;80.90;;;;;;5047606;28;21120;-73
2023/03/10 09:43:04;;;;;;;2.23;1.00;;;11.20;80.90;;;;;;5050077;28;20272;-73
2023/03/10 09:45:59;;;;;;;3.70;1.03;;;11.30;78.60;;;;;;5048169;28;20419;-73
2023/03/10 09:48:45;;;;;;;8.80;1.30;;;11.50;79.00;;;;;;5024257;28;20463;-72
2023/03/10 09:51:17;;;;;;;5.23;1.23;;;11.70;77.30;;;;;;5043782;28;20502;-72
2023/03/10 09:54:07;;;;;;;4.33;1.27;;;11.60;77.70;;;;;;5048924;28;20417;-73
2023/03/10 09:56:35;;;;;;;6.23;1.60;;;11.50;78.00;;;;;;5044018;28;20411;-75
2023/03/10 09:59:27;;;;;;;4.30;1.40;;;11.60;78.60;;;;;;5043796;28;20458;-73
2023/03/10 10:01:53;;;;;;;3.83;1.00;;;11.60;78.90;;;;;;5048919;28;20789;-72
2023/03/10 10:04:36;;;;;;;4.77;1.20;;;11.60;77.40;;;;;;5044794;28;20438;-73
2023/03/10 10:07:12;;;;;;;2.47;1.17;;;11.60;77.80;;;;;;5050267;28;20474;-73
2023/03/10 10:09:47;;;;;;;1.60;1.10;;;11.60;77.30;;;;;;5049032;28;20478;-73
2023/03/10 10:12:24;;;;;;;4.30;1.03;;;11.60;77.60;;;;;;5047601;28;20437;-75
2023/03/10 10:14:56;;;;;;;1.33;1.00;;;11.60;77.30;;;;;;5049918;28;20964;-73
2023/03/10 10:17:43;;;;;;;2.30;1.00;;;11.60;77.10;;;;;;5053599;28;20940;-75
2023/03/10 10:20:24;;;;;;;4.47;1.30;;;11.50;77.40;;;;;;5052857;28;20769;-74
2023/03/10 10:22:49;;;;;;;2.30;1.13;;;11.50;78.30;;;;;;5027694;28;20517;-74
2023/03/10 10:25:29;;;;;;;2.80;1.20;;;11.30;77.60;;;;;;5051989;28;20510;-73
2023/03/10 10:27:56;;;;;;;2.43;1.07;;;11.20;78.60;;;;;;5045757;28;20299;-75
2023/03/10 10:30:28;;;;;;;2.83;0.70;;;11.10;78.40;;;;;;5054009;28;20415;-76
2023/03/10 10:32:55;;;;;;;5.23;1.40;;;11.10;79.30;;;;;;5054283;28;20419;-74
2023/03/10 10:35:23;;;;;;;3.53;1.40;;;11.30;79.50;;;;;;5053542;28;20411;-75
2023/03/10 10:37:58;;;;;;;2.67;1.20;;;11.30;79.30;;;;;;5045637;28;21008;-74
2023/03/10 10:40:27;;;;;;;2.57;1.07;;;11.20;78.60;;;;;;5052946;28;20438;-73
2023/03/10 10:42:54;;;;;;;3.73;1.10;;;11.20;79.30;;;;;;5049292;28;20935;-74
2023/03/10 10:45:33;;;;;;;1.80;1.00;;;11.20;79.60;;;;;;5054037;28;20509;-73
2023/03/10 10:47:59;;;;;;;5.90;2.40;;;11.10;79.90;;;;;;5051973;28;20470;-73
2023/03/10 10:50:29;;;;;;;1.97;1.00;;;11.10;80.30;;;;;;5033150;28;20427;-72
2023/03/10 10:53:17;;;;;;;2.93;1.20;;;11.10;80.00;;;;;;5054388;28;20421;-73
2023/03/10 10:55:45;;;;;;;2.00;1.00;;;11.20;80.50;;;;;;5046634;28;20415;-73
2023/03/10 10:58:27;;;;;;;2.47;0.90;;;11.30;79.90;;;;;;5028053;28;20547;-73
2023/03/10 11:00:55;;;;;;;2.50;1.33;;;11.40;79.30;;;;;;5048925;28;20427;-75
2023/03/10 11:03:32;;;;;;;2.47;1.10;;;11.40;79.60;;;;;;5054432;28;20411;-74
2023/03/10 11:05:59;;;;;;;2.70;1.20;;;11.40;79.70;;;;;;5055312;28;20505;-73
2023/03/10 11:08:33;;;;;;;1.53;0.87;;;11.30;79.90;;;;;;5053069;28;21000;-74
2023/03/10 11:11:18;;;;;;;3.00;1.70;;;11.30;79.60;;;;;;5035373;28;20802;-73
2023/03/10 11:13:54;;;;;;;4.97;1.30;;;11.30;79.60;;;;;;5049400;28;20418;-75
2023/03/10 11:16:30;;;;;;;2.93;1.10;;;11.30;79.60;;;;;;5054243;28;20450;-73
2023/03/10 11:19:19;;;;;;;2.10;1.13;;;11.40;79.60;;;;;;5048811;28;20987;-73
2023/03/10 11:21:51;;;;;;;2.10;0.97;;;11.60;79.00;;;;;;5054377;28;20925;-74
2023/03/10 11:24:26;;;;;;;2.20;1.00;;;11.60;77.70;;;;;;5037846;28;20421;-72
2023/03/10 11:27:00;;;;;;;4.10;1.83;;;11.60;77.00;;;;;;5050600;28;20549;-74
2023/03/10 11:29:44;;;;;;;2.80;1.10;;;11.70;77.40;;;;;;5058567;28;21010;-74
2023/03/10 11:32:37;;;;;;;2.13;0.97;;;11.80;76.80;;;;;;5055353;28;20450;-74
2023/03/10 11:35:20;;;;;;;3.10;1.00;;;11.60;77.00;;;;;;5054861;28;20408;-74
2023/03/10 11:38:13;;;;;;;1.40;0.90;;;11.50;76.80;;;;;;5044243;28;20430;-73
2023/03/10 11:40:55;;;;;;;2.20;1.20;;;11.40;77.70;;;;;;5052621;28;20482;-73
2023/03/10 11:44:02;;;;;;;1.67;1.13;;;11.40;78.40;;;;;;5054197;28;20425;-73
2023/03/10 11:46:33;;;;;;;2.93;1.00;;;11.40;78.10;;;;;;5053478;28;20585;-74
2023/03/10 11:49:04;;;;;;;3.70;1.10;;;11.50;78.10;;;;;;5045534;28;20463;-72
2023/03/10 11:51:59;;;;;;;1.00;0.80;;;11.40;78.00;;;;;;5053891;28;20412;-74
2023/03/10 11:54:33;;;;;;;2.30;1.10;;;11.20;78.60;;;;;;5048985;28;20412;-74
2023/03/10 11:57:02;;;;;;;2.03;0.90;;;11.10;80.00;;;;;;5045347;28;20419;-72
2023/03/10 11:59:30;;;;;;;2.70;1.37;;;11.10;80.90;;;;;;5046704;28;20474;-74
2023/03/10 12:02:09;;;;;;;3.13;1.10;;;11.20;80.60;;;;;;5051288;28;20423;-73
2023/03/10 12:04:53;;;;;;;4.37;1.53;;;11.10;80.00;;;;;;5048490;28;20414;-73
2023/03/10 12:07:34;;;;;;;4.20;1.03;;;11.10;79.00;;;;;;5053445;28;20473;-74
2023/03/10 12:10:04;;;;;;;1.60;0.87;;;11.20;79.50;;;;;;5054788;28;20434;-73
2023/03/10 12:12:35;;;;;;;2.40;0.80;;;11.10;79.50;;;;;;5046920;28;20478;-74
2023/03/10 12:15:24;;;;;;;1.70;1.17;;;11.10;78.70;;;;;;5054476;28;20423;-72
2023/03/10 12:17:52;;;;;;;1.73;0.90;;;11.10;78.60;;;;;;5042225;28;20977;-74
2023/03/10 12:20:17;;;;;;;4.93;1.67;;;11.30;78.40;;;;;;5047753;28;20450;-72
2023/03/10 12:22:51;;;;;;;1.77;1.10;;;11.60;77.70;;;;;;5034735;28;20942;-75
2023/03/10 12:25:28;;;;;;;1.97;0.90;;;12.10;75.80;;;;;;5035000;28;20581;-74
2023/03/10 12:28:16;;;;;;;4.43;0.97;;;12.10;73.60;;;;;;5049966;28;20502;-73
2023/03/10 12:30:51;;;;;;;2.23;0.70;;;11.80;73.90;;;;;;5046469;28;20495;-73
2023/03/10 12:33:29;;;;;;;1.30;0.67;;;11.60;74.50;;;;;;5051128;28;20430;-75
2023/03/10 12:36:11;;;;;;;1.00;0.80;;;11.60;75.10;;;;;;5051919;28;20415;-75
2023/03/10 12:38:45;;;;;;;1.57;0.90;;;11.50;73.60;;;;;;5052586;28;20483;-72
2023/03/10 12:41:12;;;;;;;2.13;0.70;;;11.60;74.50;;;;;;5054017;28;20978;-73
2023/03/10 12:43:47;;;;;;;1.97;0.70;;;11.50;74.60;;;;;;5054218;28;21154;-74
2023/03/10 12:46:21;;;;;;;2.00;0.70;;;11.40;75.20;;;;;;5045851;28;20412;-74
2023/03/10 12:48:59;;;;;;;1.43;0.70;;;11.40;75.40;;;;;;5048341;28;20467;-73
2023/03/10 12:51:28;;;;;;;1.53;1.07;;;11.50;75.40;;;;;;5057681;28;20471;-75
2023/03/10 12:54:13;;;;;;;1.60;0.80;;;11.70;74.90;;;;;;5053455;28;20423;-74
2023/03/10 12:56:42;;;;;;;1.40;0.67;;;11.80;74.90;;;;;;5042705;28;20440;-73
2023/03/10 12:59:26;;;;;;;2.10;0.80;;;11.70;74.90;;;;;;5050077;28;20463;-73